sensor_id;sensor_type;location;lat;lon;timestamp;pressure;altitude;pressure_sealevel;temperature;humidity
50310;BME280;36207;51.850;21.698;2024-03-25T00:00:11;98489.31;;;3.25;75.92
50310;BME280;36207;51.850;21.698;2024-03-25T00:02:57;98486.46;;;3.24;75.72
50310;BME280;36207;51.850;21.698;2024-03-25T00:05:22;98483.96;;;3.23;75.69
50310;BME280;36207;51.850;21.698;2024-03-25T00:07:51;98482.86;;;3.25;75.95
50310;BME280;36207;51.850;21.698;2024-03-25T00:10:18;98480.08;;;3.26;75.96
50310;BME280;36207;51.850;21.698;2024-03-25T00:12:49;98477.75;;;3.28;76.09
50310;BME280;36207;51.850;21.698;2024-03-25T00:15:19;98478.34;;;3.29;75.98
50310;BME280;36207;51.850;21.698;2024-03-25T00:17:49;98481.34;;;3.29;75.96
50310;BME280;36207;51.850;21.698;2024-03-25T00:20:15;98477.74;;;3.28;76.10
50310;BME280;36207;51.850;21.698;2024-03-25T00:22:41;98477.94;;;3.26;75.92
50310;BME280;36207;51.850;21.698;2024-03-25T00:25:08;98474.80;;;3.26;75.79
50310;BME280;36207;51.850;21.698;2024-03-25T00:27:34;98478.60;;;3.25;76.16
50310;BME280;36207;51.850;21.698;2024-03-25T00:30:00;98481.55;;;3.22;76.16
50310;BME280;36207;51.850;21.698;2024-03-25T00:32:26;98480.73;;;3.20;75.97
50310;BME280;36207;51.850;21.698;2024-03-25T00:34:52;98475.50;;;3.17;76.44
50310;BME280;36207;51.850;21.698;2024-03-25T00:37:18;98474.91;;;3.12;76.10
50310;BME280;36207;51.850;21.698;2024-03-25T00:39:44;98472.41;;;3.11;76.34
50310;BME280;36207;51.850;21.698;2024-03-25T00:42:11;98468.11;;;3.08;76.44
50310;BME280;36207;51.850;21.698;2024-03-25T00:44:37;98469.39;;;3.08;76.06
50310;BME280;36207;51.850;21.698;2024-03-25T00:47:03;98468.16;;;3.11;75.98
50310;BME280;36207;51.850;21.698;2024-03-25T00:49:29;98465.09;;;3.13;76.21
50310;BME280;36207;51.850;21.698;2024-03-25T00:51:55;98466.73;;;3.15;76.20
50310;BME280;36207;51.850;21.698;2024-03-25T00:54:22;98465.52;;;3.14;76.25
50310;BME280;36207;51.850;21.698;2024-03-25T00:56:49;98463.46;;;3.14;76.26
50310;BME280;36207;51.850;21.698;2024-03-25T00:59:17;98463.55;;;3.11;76.36
50310;BME280;36207;51.850;21.698;2024-03-25T01:01:43;98463.35;;;3.08;76.46
50310;BME280;36207;51.850;21.698;2024-03-25T01:04:09;98463.95;;;3.05;76.47
50310;BME280;36207;51.850;21.698;2024-03-25T01:06:35;98466.04;;;3.02;76.51
50310;BME280;36207;51.850;21.698;2024-03-25T01:09:01;98470.16;;;3.00;76.78
50310;BME280;36207;51.850;21.698;2024-03-25T01:11:27;98466.16;;;2.96;76.77
50310;BME280;36207;51.850;21.698;2024-03-25T01:13:53;98466.41;;;2.95;76.75
50310;BME280;36207;51.850;21.698;2024-03-25T01:16:19;98462.63;;;2.95;76.89
50310;BME280;36207;51.850;21.698;2024-03-25T01:18:44;98461.80;;;2.94;76.91
50310;BME280;36207;51.850;21.698;2024-03-25T01:21:11;98461.80;;;2.94;77.00
50310;BME280;36207;51.850;21.698;2024-03-25T01:23:36;98462.20;;;2.94;77.10
50310;BME280;36207;51.850;21.698;2024-03-25T01:26:02;98460.70;;;2.93;77.08
50310;BME280;36207;51.850;21.698;2024-03-25T01:28:28;98464.88;;;2.93;77.14
50310;BME280;36207;51.850;21.698;2024-03-25T01:30:54;98466.66;;;2.93;77.42
50310;BME280;36207;51.850;21.698;2024-03-25T01:33:20;98465.97;;;2.93;77.22
50310;BME280;36207;51.850;21.698;2024-03-25T01:35:46;98464.79;;;2.93;77.59
50310;BME280;36207;51.850;21.698;2024-03-25T01:38:12;98462.15;;;2.91;77.56
50310;BME280;36207;51.850;21.698;2024-03-25T01:40:38;98463.20;;;2.89;77.47
50310;BME280;36207;51.850;21.698;2024-03-25T01:43:05;98458.45;;;2.88;77.51
50310;BME280;36207;51.850;21.698;2024-03-25T01:45:35;98458.20;;;2.85;77.47
50310;BME280;36207;51.850;21.698;2024-03-25T01:48:04;98461.64;;;2.83;77.35
50310;BME280;36207;51.850;21.698;2024-03-25T01:50:35;98459.73;;;2.83;77.40
50310;BME280;36207;51.850;21.698;2024-03-25T01:53:03;98453.95;;;2.82;77.54
50310;BME280;36207;51.850;21.698;2024-03-25T01:55:30;98456.54;;;2.79;77.55
50310;BME280;36207;51.850;21.698;2024-03-25T01:57:58;98454.52;;;2.77;77.66
50310;BME280;36207;51.850;21.698;2024-03-25T02:00:25;98453.34;;;2.75;77.58
50310;BME280;36207;51.850;21.698;2024-03-25T02:02:52;98454.04;;;2.72;77.58
50310;BME280;36207;51.850;21.698;2024-03-25T02:05:20;98458.32;;;2.69;77.52
50310;BME280;36207;51.850;21.698;2024-03-25T02:07:46;98459.23;;;2.67;77.53
50310;BME280;36207;51.850;21.698;2024-03-25T02:10:15;98455.34;;;2.66;77.80
50310;BME280;36207;51.850;21.698;2024-03-25T02:12:42;98460.58;;;2.63;77.79
50310;BME280;36207;51.850;21.698;2024-03-25T02:15:09;98458.13;;;2.61;77.92
50310;BME280;36207;51.850;21.698;2024-03-25T02:17:36;98457.27;;;2.60;78.04
50310;BME280;36207;51.850;21.698;2024-03-25T02:20:03;98455.68;;;2.57;78.33
50310;BME280;36207;51.850;21.698;2024-03-25T02:22:32;98457.42;;;2.54;78.02
50310;BME280;36207;51.850;21.698;2024-03-25T02:24:59;98460.11;;;2.53;78.45
50310;BME280;36207;51.850;21.698;2024-03-25T02:27:26;98459.69;;;2.52;78.18
50310;BME280;36207;51.850;21.698;2024-03-25T02:29:54;98462.10;;;2.51;78.28
50310;BME280;36207;51.850;21.698;2024-03-25T02:32:27;98462.59;;;2.50;77.98
50310;BME280;36207;51.850;21.698;2024-03-25T02:34:56;98463.65;;;2.50;78.58
50310;BME280;36207;51.850;21.698;2024-03-25T02:37:22;98461.31;;;2.46;78.44
50310;BME280;36207;51.850;21.698;2024-03-25T02:39:48;98463.48;;;2.44;78.46
50310;BME280;36207;51.850;21.698;2024-03-25T02:42:15;98462.03;;;2.42;78.87
50310;BME280;36207;51.850;21.698;2024-03-25T02:44:41;98464.38;;;2.38;78.80
50310;BME280;36207;51.850;21.698;2024-03-25T02:47:09;98468.13;;;2.37;78.76
50310;BME280;36207;51.850;21.698;2024-03-25T02:49:37;98469.02;;;2.34;80.35
50310;BME280;36207;51.850;21.698;2024-03-25T02:52:04;98468.59;;;2.28;79.13
50310;BME280;36207;51.850;21.698;2024-03-25T02:54:30;98469.14;;;2.28;79.76
50310;BME280;36207;51.850;21.698;2024-03-25T02:56:56;98468.91;;;2.27;79.28
50310;BME280;36207;51.850;21.698;2024-03-25T02:59:22;98464.90;;;2.28;79.08
50310;BME280;36207;51.850;21.698;2024-03-25T03:01:48;98469.38;;;2.32;79.26
50310;BME280;36207;51.850;21.698;2024-03-25T03:04:14;98470.45;;;2.34;79.17
50310;BME280;36207;51.850;21.698;2024-03-25T03:06:39;98467.87;;;2.35;78.84
50310;BME280;36207;51.850;21.698;2024-03-25T03:09:06;98470.79;;;2.37;78.90
50310;BME280;36207;51.850;21.698;2024-03-25T03:11:32;98472.23;;;2.40;78.83
50310;BME280;36207;51.850;21.698;2024-03-25T03:13:58;98471.48;;;2.40;78.96
50310;BME280;36207;51.850;21.698;2024-03-25T03:16:24;98472.96;;;2.38;79.18
50310;BME280;36207;51.850;21.698;2024-03-25T03:18:50;98475.58;;;2.37;78.92
50310;BME280;36207;51.850;21.698;2024-03-25T03:21:15;98477.55;;;2.36;79.27
50310;BME280;36207;51.850;21.698;2024-03-25T03:23:41;98479.68;;;2.33;79.65
50310;BME280;36207;51.850;21.698;2024-03-25T03:26:07;98480.67;;;2.30;79.60
50310;BME280;36207;51.850;21.698;2024-03-25T03:28:33;98479.06;;;2.29;79.40
50310;BME280;36207;51.850;21.698;2024-03-25T03:31:00;98480.23;;;2.28;79.63
50310;BME280;36207;51.850;21.698;2024-03-25T03:33:26;98479.45;;;2.25;80.12
50310;BME280;36207;51.850;21.698;2024-03-25T03:35:53;98475.79;;;2.21;79.67
50310;BME280;36207;51.850;21.698;2024-03-25T03:38:21;98476.69;;;2.20;79.82
50310;BME280;36207;51.850;21.698;2024-03-25T03:41:00;98476.45;;;2.19;79.60
50310;BME280;36207;51.850;21.698;2024-03-25T03:43:26;98477.73;;;2.18;79.89
50310;BME280;36207;51.850;21.698;2024-03-25T03:45:52;98482.80;;;2.16;80.27
50310;BME280;36207;51.850;21.698;2024-03-25T03:48:18;98486.52;;;2.15;80.07
50310;BME280;36207;51.850;21.698;2024-03-25T03:50:44;98485.98;;;2.15;79.77
50310;BME280;36207;51.850;21.698;2024-03-25T03:53:11;98485.89;;;2.15;80.25
50310;BME280;36207;51.850;21.698;2024-03-25T03:55:37;98486.61;;;2.14;80.22
50310;BME280;36207;51.850;21.698;2024-03-25T03:58:03;98494.18;;;2.12;80.49
50310;BME280;36207;51.850;21.698;2024-03-25T04:00:33;98495.44;;;2.12;80.43
50310;BME280;36207;51.850;21.698;2024-03-25T04:02:59;98497.19;;;2.12;80.45
50310;BME280;36207;51.850;21.698;2024-03-25T04:05:28;98496.46;;;2.10;80.46
50310;BME280;36207;51.850;21.698;2024-03-25T04:07:55;98494.70;;;2.07;80.46
50310;BME280;36207;51.850;21.698;2024-03-25T04:10:21;98494.92;;;2.05;80.40
50310;BME280;36207;51.850;21.698;2024-03-25T04:12:47;98494.66;;;2.04;80.83
50310;BME280;36207;51.850;21.698;2024-03-25T04:15:13;98494.54;;;2.04;80.45
50310;BME280;36207;51.850;21.698;2024-03-25T04:17:44;98494.40;;;2.07;80.07
50310;BME280;36207;51.850;21.698;2024-03-25T04:20:11;98496.77;;;2.09;80.77
50310;BME280;36207;51.850;21.698;2024-03-25T04:22:41;98498.30;;;2.08;80.86
50310;BME280;36207;51.850;21.698;2024-03-25T04:25:12;98497.17;;;2.07;80.82
50310;BME280;36207;51.850;21.698;2024-03-25T04:27:43;98493.82;;;2.07;80.24
50310;BME280;36207;51.850;21.698;2024-03-25T04:30:10;98493.52;;;2.10;80.58
50310;BME280;36207;51.850;21.698;2024-03-25T04:32:38;98498.04;;;2.10;81.02
50310;BME280;36207;51.850;21.698;2024-03-25T04:35:05;98504.92;;;2.12;80.54
50310;BME280;36207;51.850;21.698;2024-03-25T04:37:35;98509.59;;;2.15;80.76
50310;BME280;36207;51.850;21.698;2024-03-25T04:40:02;98512.73;;;2.19;80.46
50310;BME280;36207;51.850;21.698;2024-03-25T04:42:28;98513.98;;;2.22;80.38
50310;BME280;36207;51.850;21.698;2024-03-25T04:44:54;98507.84;;;2.26;80.43
50310;BME280;36207;51.850;21.698;2024-03-25T04:47:20;98506.00;;;2.28;80.19
50310;BME280;36207;51.850;21.698;2024-03-25T04:49:46;98508.36;;;2.32;80.18
50310;BME280;36207;51.850;21.698;2024-03-25T04:52:14;98509.04;;;2.34;80.36
50310;BME280;36207;51.850;21.698;2024-03-25T04:54:43;98508.80;;;2.36;80.48
50310;BME280;36207;51.850;21.698;2024-03-25T04:57:09;98511.43;;;2.40;80.46
50310;BME280;36207;51.850;21.698;2024-03-25T04:59:35;98511.80;;;2.43;80.28
50310;BME280;36207;51.850;21.698;2024-03-25T05:02:01;98508.92;;;2.47;80.62
50310;BME280;36207;51.850;21.698;2024-03-25T05:04:28;98512.06;;;2.47;80.54
50310;BME280;36207;51.850;21.698;2024-03-25T05:06:54;98510.95;;;2.46;80.88
50310;BME280;36207;51.850;21.698;2024-03-25T05:09:20;98511.70;;;2.44;80.71
50310;BME280;36207;51.850;21.698;2024-03-25T05:11:46;98512.19;;;2.44;81.14
50310;BME280;36207;51.850;21.698;2024-03-25T05:14:12;98514.30;;;2.42;81.57
50310;BME280;36207;51.850;21.698;2024-03-25T05:16:38;98515.64;;;2.39;81.45
50310;BME280;36207;51.850;21.698;2024-03-25T05:19:04;98513.94;;;2.38;81.33
50310;BME280;36207;51.850;21.698;2024-03-25T05:21:31;98515.35;;;2.39;81.99
50310;BME280;36207;51.850;21.698;2024-03-25T05:23:57;98515.29;;;2.40;81.95
50310;BME280;36207;51.850;21.698;2024-03-25T05:26:23;98514.40;;;2.41;81.85
50310;BME280;36207;51.850;21.698;2024-03-25T05:28:55;98518.55;;;2.42;81.52
50310;BME280;36207;51.850;21.698;2024-03-25T05:31:22;98518.88;;;2.44;81.96
50310;BME280;36207;51.850;21.698;2024-03-25T05:33:49;98519.67;;;2.45;81.80
50310;BME280;36207;51.850;21.698;2024-03-25T05:36:15;98521.39;;;2.47;81.65
50310;BME280;36207;51.850;21.698;2024-03-25T05:38:41;98526.23;;;2.51;81.64
50310;BME280;36207;51.850;21.698;2024-03-25T05:41:09;98524.09;;;2.54;81.56
50310;BME280;36207;51.850;21.698;2024-03-25T05:43:35;98521.77;;;2.56;81.80
50310;BME280;36207;51.850;21.698;2024-03-25T05:46:01;98524.05;;;2.58;81.80
50310;BME280;36207;51.850;21.698;2024-03-25T05:48:27;98523.06;;;2.59;81.76
50310;BME280;36207;51.850;21.698;2024-03-25T05:51:11;98526.98;;;2.63;82.25
50310;BME280;36207;51.850;21.698;2024-03-25T05:53:37;98525.58;;;2.63;82.60
50310;BME280;36207;51.850;21.698;2024-03-25T05:56:04;98527.31;;;2.65;82.04
50310;BME280;36207;51.850;21.698;2024-03-25T05:58:30;98527.15;;;2.68;81.77
50310;BME280;36207;51.850;21.698;2024-03-25T06:00:56;98527.58;;;2.75;81.93
50310;BME280;36207;51.850;21.698;2024-03-25T06:03:22;98531.23;;;2.80;81.77
50310;BME280;36207;51.850;21.698;2024-03-25T06:05:48;98531.93;;;2.86;81.63
50310;BME280;36207;51.850;21.698;2024-03-25T06:08:15;98536.16;;;2.94;81.96
50310;BME280;36207;51.850;21.698;2024-03-25T06:10:53;98536.49;;;2.96;81.75
50310;BME280;36207;51.850;21.698;2024-03-25T06:13:20;98538.17;;;3.00;81.70
50310;BME280;36207;51.850;21.698;2024-03-25T06:15:46;98539.38;;;3.03;81.79
50310;BME280;36207;51.850;21.698;2024-03-25T06:18:13;98541.83;;;3.06;81.57
50310;BME280;36207;51.850;21.698;2024-03-25T06:20:38;98540.30;;;3.14;81.61
50310;BME280;36207;51.850;21.698;2024-03-25T06:23:04;98537.21;;;3.22;81.64
50310;BME280;36207;51.850;21.698;2024-03-25T06:25:30;98536.05;;;3.27;81.58
50310;BME280;36207;51.850;21.698;2024-03-25T06:27:56;98536.23;;;3.34;81.48
50310;BME280;36207;51.850;21.698;2024-03-25T06:30:23;98540.67;;;3.41;81.54
50310;BME280;36207;51.850;21.698;2024-03-25T06:33:07;98536.70;;;3.46;81.45
50310;BME280;36207;51.850;21.698;2024-03-25T06:35:52;98539.08;;;3.52;81.38
50310;BME280;36207;51.850;21.698;2024-03-25T06:38:18;98541.31;;;3.61;81.32
50310;BME280;36207;51.850;21.698;2024-03-25T06:40:47;98547.04;;;3.68;81.37
50310;BME280;36207;51.850;21.698;2024-03-25T06:43:13;98547.31;;;3.73;81.34
50310;BME280;36207;51.850;21.698;2024-03-25T06:45:41;98545.99;;;3.80;81.32
50310;BME280;36207;51.850;21.698;2024-03-25T06:48:07;98548.83;;;3.90;81.32
50310;BME280;36207;51.850;21.698;2024-03-25T06:50:33;98549.41;;;3.98;81.45
50310;BME280;36207;51.850;21.698;2024-03-25T06:52:59;98546.71;;;4.10;81.53
50310;BME280;36207;51.850;21.698;2024-03-25T06:55:25;98547.39;;;4.24;81.58
50310;BME280;36207;51.850;21.698;2024-03-25T06:57:54;98543.38;;;4.38;81.56
50310;BME280;36207;51.850;21.698;2024-03-25T07:00:20;98542.16;;;4.52;81.45
50310;BME280;36207;51.850;21.698;2024-03-25T07:02:48;98543.95;;;4.67;81.79
50310;BME280;36207;51.850;21.698;2024-03-25T07:05:15;98539.38;;;4.93;82.03
50310;BME280;36207;51.850;21.698;2024-03-25T07:07:42;98541.05;;;5.23;82.19
50310;BME280;36207;51.850;21.698;2024-03-25T07:10:08;98541.35;;;5.54;81.91
50310;BME280;36207;51.850;21.698;2024-03-25T07:12:34;98538.14;;;5.76;81.61
50310;BME280;36207;51.850;21.698;2024-03-25T07:15:00;98539.60;;;5.99;81.65
50310;BME280;36207;51.850;21.698;2024-03-25T07:17:26;98542.48;;;6.24;80.98
50310;BME280;36207;51.850;21.698;2024-03-25T07:19:52;98541.41;;;6.45;80.84
50310;BME280;36207;51.850;21.698;2024-03-25T07:22:18;98542.41;;;6.63;80.28
50310;BME280;36207;51.850;21.698;2024-03-25T07:24:44;98542.86;;;6.82;79.83
50310;BME280;36207;51.850;21.698;2024-03-25T07:27:10;98538.65;;;7.02;79.98
50310;BME280;36207;51.850;21.698;2024-03-25T07:29:37;98539.38;;;7.21;79.50
50310;BME280;36207;51.850;21.698;2024-03-25T07:32:03;98542.55;;;7.38;79.98
50310;BME280;36207;51.850;21.698;2024-03-25T07:34:30;98538.66;;;7.58;79.88
50310;BME280;36207;51.850;21.698;2024-03-25T07:36:56;98539.42;;;7.78;78.97
50310;BME280;36207;51.850;21.698;2024-03-25T07:39:22;98545.77;;;7.99;79.58
50310;BME280;36207;51.850;21.698;2024-03-25T07:41:50;98547.45;;;8.20;78.96
50310;BME280;36207;51.850;21.698;2024-03-25T07:44:16;98549.37;;;8.37;78.86
50310;BME280;36207;51.850;21.698;2024-03-25T07:46:42;98548.23;;;8.54;78.73
50310;BME280;36207;51.850;21.698;2024-03-25T07:49:08;98545.56;;;8.77;78.82
50310;BME280;36207;51.850;21.698;2024-03-25T07:51:34;98546.80;;;8.97;78.13
50310;BME280;36207;51.850;21.698;2024-03-25T07:54:01;98549.82;;;9.15;78.98
50310;BME280;36207;51.850;21.698;2024-03-25T07:56:31;98548.29;;;9.34;78.51
50310;BME280;36207;51.850;21.698;2024-03-25T07:58:58;98550.70;;;9.54;77.92
50310;BME280;36207;51.850;21.698;2024-03-25T08:01:25;98547.77;;;9.74;78.16
50310;BME280;36207;51.850;21.698;2024-03-25T08:03:51;98549.79;;;9.91;78.30
50310;BME280;36207;51.850;21.698;2024-03-25T08:06:17;98551.20;;;10.11;77.04
50310;BME280;36207;51.850;21.698;2024-03-25T08:08:43;98552.88;;;10.27;76.05
50310;BME280;36207;51.850;21.698;2024-03-25T08:11:09;98556.06;;;10.45;77.38
50310;BME280;36207;51.850;21.698;2024-03-25T08:13:34;98558.67;;;10.62;75.18
50310;BME280;36207;51.850;21.698;2024-03-25T08:16:00;98560.35;;;10.77;75.32
50310;BME280;36207;51.850;21.698;2024-03-25T08:18:26;98554.45;;;11.02;75.85
50310;BME280;36207;51.850;21.698;2024-03-25T08:20:52;98555.85;;;11.28;75.55
50310;BME280;36207;51.850;21.698;2024-03-25T08:23:18;98556.06;;;11.35;72.76
50310;BME280;36207;51.850;21.698;2024-03-25T08:25:44;98561.48;;;11.47;73.13
50310;BME280;36207;51.850;21.698;2024-03-25T08:28:10;98558.90;;;11.57;73.01
50310;BME280;36207;51.850;21.698;2024-03-25T08:30:36;98557.29;;;11.66;73.73
50310;BME280;36207;51.850;21.698;2024-03-25T08:33:02;98554.24;;;11.87;73.31
50310;BME280;36207;51.850;21.698;2024-03-25T08:35:28;98554.52;;;12.13;73.11
50310;BME280;36207;51.850;21.698;2024-03-25T08:37:54;98554.69;;;12.29;71.05
50310;BME280;36207;51.850;21.698;2024-03-25T08:40:20;98555.59;;;12.37;70.64
50310;BME280;36207;51.850;21.698;2024-03-25T08:42:46;98556.01;;;12.33;68.72
50310;BME280;36207;51.850;21.698;2024-03-25T08:45:12;98554.04;;;12.27;69.21
50310;BME280;36207;51.850;21.698;2024-03-25T08:47:37;98557.00;;;12.24;68.40
50310;BME280;36207;51.850;21.698;2024-03-25T08:50:04;98561.09;;;12.19;68.38
50310;BME280;36207;51.850;21.698;2024-03-25T08:52:30;98566.51;;;11.95;67.52
50310;BME280;36207;51.850;21.698;2024-03-25T08:54:56;98566.24;;;11.76;67.72
50310;BME280;36207;51.850;21.698;2024-03-25T08:57:22;98569.48;;;11.80;69.02
50310;BME280;36207;51.850;21.698;2024-03-25T08:59:48;98570.17;;;12.01;68.37
50310;BME280;36207;51.850;21.698;2024-03-25T09:02:14;98569.14;;;12.29;67.76
50310;BME280;36207;51.850;21.698;2024-03-25T09:04:40;98570.17;;;12.58;66.81
50310;BME280;36207;51.850;21.698;2024-03-25T09:07:05;98574.07;;;12.88;66.42
50310;BME280;36207;51.850;21.698;2024-03-25T09:09:31;98573.33;;;13.14;65.39
50310;BME280;36207;51.850;21.698;2024-03-25T09:12:16;98570.54;;;13.32;65.47
50310;BME280;36207;51.850;21.698;2024-03-25T09:14:42;98570.95;;;13.48;66.49
50310;BME280;36207;51.850;21.698;2024-03-25T09:17:08;98573.17;;;13.64;66.91
50310;BME280;36207;51.850;21.698;2024-03-25T09:19:34;98577.93;;;13.83;68.16
50310;BME280;36207;51.850;21.698;2024-03-25T09:22:00;98574.84;;;14.04;67.68
50310;BME280;36207;51.850;21.698;2024-03-25T09:24:26;98574.36;;;14.22;66.28
50310;BME280;36207;51.850;21.698;2024-03-25T09:26:52;98574.84;;;14.36;64.85
50310;BME280;36207;51.850;21.698;2024-03-25T09:29:19;98578.46;;;14.50;64.47
50310;BME280;36207;51.850;21.698;2024-03-25T09:31:44;98580.60;;;14.48;64.56
50310;BME280;36207;51.850;21.698;2024-03-25T09:34:10;98578.98;;;14.28;63.59
50310;BME280;36207;51.850;21.698;2024-03-25T09:36:36;98582.77;;;13.96;63.16
50310;BME280;36207;51.850;21.698;2024-03-25T09:39:02;98584.56;;;13.59;62.16
50310;BME280;36207;51.850;21.698;2024-03-25T09:41:30;98586.21;;;13.24;63.06
50310;BME280;36207;51.850;21.698;2024-03-25T09:44:00;98590.34;;;12.88;62.04
50310;BME280;36207;51.850;21.698;2024-03-25T09:46:26;98590.05;;;12.53;62.56
50310;BME280;36207;51.850;21.698;2024-03-25T09:48:53;98592.23;;;12.24;62.89
50310;BME280;36207;51.850;21.698;2024-03-25T09:51:20;98594.56;;;11.97;62.74
50310;BME280;36207;51.850;21.698;2024-03-25T09:53:46;98595.97;;;11.79;63.71
50310;BME280;36207;51.850;21.698;2024-03-25T09:56:13;98596.89;;;11.63;63.92
50310;BME280;36207;51.850;21.698;2024-03-25T09:58:40;98595.20;;;11.50;64.49
50310;BME280;36207;51.850;21.698;2024-03-25T10:01:06;98594.75;;;11.45;64.50
50310;BME280;36207;51.850;21.698;2024-03-25T10:03:32;98592.06;;;11.48;64.98
50310;BME280;36207;51.850;21.698;2024-03-25T10:05:58;98591.33;;;11.65;65.42
50310;BME280;36207;51.850;21.698;2024-03-25T10:08:24;98592.14;;;11.78;62.96
50310;BME280;36207;51.850;21.698;2024-03-25T10:10:56;98592.77;;;11.69;62.99
50310;BME280;36207;51.850;21.698;2024-03-25T10:13:22;98589.55;;;11.61;63.68
50310;BME280;36207;51.850;21.698;2024-03-25T10:15:49;98590.76;;;11.55;62.84
50310;BME280;36207;51.850;21.698;2024-03-25T10:18:15;98592.91;;;11.50;63.49
50310;BME280;36207;51.850;21.698;2024-03-25T10:20:48;98592.17;;;11.43;63.65
50310;BME280;36207;51.850;21.698;2024-03-25T10:23:14;98593.70;;;11.35;63.21
50310;BME280;36207;51.850;21.698;2024-03-25T10:25:40;98590.53;;;11.23;61.99
50310;BME280;36207;51.850;21.698;2024-03-25T10:28:08;98595.08;;;11.10;60.89
50310;BME280;36207;51.850;21.698;2024-03-25T10:30:34;98595.64;;;11.01;62.16
50310;BME280;36207;51.850;21.698;2024-03-25T10:33:04;98593.39;;;11.01;62.48
50310;BME280;36207;51.850;21.698;2024-03-25T10:35:32;98591.95;;;11.12;62.32
50310;BME280;36207;51.850;21.698;2024-03-25T10:38:04;98591.86;;;11.34;60.95
50310;BME280;36207;51.850;21.698;2024-03-25T10:40:37;98593.19;;;11.49;60.54
50310;BME280;36207;51.850;21.698;2024-03-25T10:43:05;98591.69;;;11.39;59.30
50310;BME280;36207;51.850;21.698;2024-03-25T10:45:37;98585.36;;;11.23;59.86
50310;BME280;36207;51.850;21.698;2024-03-25T10:48:09;98590.83;;;11.01;59.23
50310;BME280;36207;51.850;21.698;2024-03-25T10:50:37;98586.84;;;10.84;60.91
50310;BME280;36207;51.850;21.698;2024-03-25T10:53:05;98585.96;;;10.73;60.95
50310;BME280;36207;51.850;21.698;2024-03-25T10:55:32;98587.42;;;10.63;60.96
50310;BME280;36207;51.850;21.698;2024-03-25T10:58:00;98587.65;;;10.52;60.96
50310;BME280;36207;51.850;21.698;2024-03-25T11:00:27;98587.69;;;10.44;61.16
50310;BME280;36207;51.850;21.698;2024-03-25T11:02:53;98589.71;;;10.32;60.68
50310;BME280;36207;51.850;21.698;2024-03-25T11:05:20;98594.86;;;10.13;60.79
50310;BME280;36207;51.850;21.698;2024-03-25T11:07:46;98599.97;;;9.91;61.56
50310;BME280;36207;51.850;21.698;2024-03-25T11:10:13;98605.60;;;9.67;61.09
50310;BME280;36207;51.850;21.698;2024-03-25T11:12:41;98607.63;;;9.40;60.84
50310;BME280;36207;51.850;21.698;2024-03-25T11:15:08;98615.66;;;9.12;60.75
50310;BME280;36207;51.850;21.698;2024-03-25T11:17:35;98614.67;;;8.80;60.68
50310;BME280;36207;51.850;21.698;2024-03-25T11:20:12;98611.09;;;8.54;61.56
50310;BME280;36207;51.850;21.698;2024-03-25T11:22:49;98607.92;;;8.30;62.45
50310;BME280;36207;51.850;21.698;2024-03-25T11:25:16;98604.92;;;8.19;62.90
50310;BME280;36207;51.850;21.698;2024-03-25T11:27:44;98608.27;;;8.09;63.93
50310;BME280;36207;51.850;21.698;2024-03-25T11:30:11;98603.75;;;8.04;63.98
50310;BME280;36207;51.850;21.698;2024-03-25T11:32:43;98599.50;;;8.23;62.52
50310;BME280;36207;51.850;21.698;2024-03-25T11:35:10;98595.63;;;8.61;58.69
50310;BME280;36207;51.850;21.698;2024-03-25T11:37:42;98591.16;;;9.05;60.61
50310;BME280;36207;51.850;21.698;2024-03-25T11:40:10;98587.46;;;9.43;60.00
50310;BME280;36207;51.850;21.698;2024-03-25T11:42:39;98584.06;;;9.67;60.43
50310;BME280;36207;51.850;21.698;2024-03-25T11:45:10;98580.96;;;9.94;61.51
50310;BME280;36207;51.850;21.698;2024-03-25T11:47:45;98580.59;;;10.20;61.09
50310;BME280;36207;51.850;21.698;2024-03-25T11:50:13;98581.11;;;10.38;60.29
50310;BME280;36207;51.850;21.698;2024-03-25T11:52:39;98577.03;;;10.29;58.59
50310;BME280;36207;51.850;21.698;2024-03-25T11:55:06;98575.64;;;10.14;59.85
50310;BME280;36207;51.850;21.698;2024-03-25T11:57:35;98573.98;;;10.10;61.21
50310;BME280;36207;51.850;21.698;2024-03-25T12:00:02;98575.10;;;10.06;59.96
50310;BME280;36207;51.850;21.698;2024-03-25T12:02:31;98575.33;;;10.01;60.59
50310;BME280;36207;51.850;21.698;2024-03-25T12:04:57;98576.52;;;9.97;59.94
50310;BME280;36207;51.850;21.698;2024-03-25T12:07:24;98578.34;;;9.93;60.33
50310;BME280;36207;51.850;21.698;2024-03-25T12:09:50;98576.98;;;9.92;60.81
50310;BME280;36207;51.850;21.698;2024-03-25T12:12:34;98578.31;;;9.90;60.65
50310;BME280;36207;51.850;21.698;2024-03-25T12:15:00;98578.94;;;9.86;61.10
50310;BME280;36207;51.850;21.698;2024-03-25T12:17:29;98577.67;;;9.87;61.70
50310;BME280;36207;51.850;21.698;2024-03-25T12:20:05;98575.04;;;9.88;61.82
50310;BME280;36207;51.850;21.698;2024-03-25T12:22:32;98576.76;;;9.88;61.49
50310;BME280;36207;51.850;21.698;2024-03-25T12:25:02;98578.64;;;9.89;61.67
50310;BME280;36207;51.850;21.698;2024-03-25T12:27:29;98580.77;;;9.91;62.33
50310;BME280;36207;51.850;21.698;2024-03-25T12:32:38;98584.02;;;9.99;62.49
50310;BME280;36207;51.850;21.698;2024-03-25T12:37:40;98584.02;;;10.02;62.42
50310;BME280;36207;51.850;21.698;2024-03-25T12:40:09;98585.77;;;10.05;62.83
50310;BME280;36207;51.850;21.698;2024-03-25T12:42:35;98585.20;;;10.08;62.59
50310;BME280;36207;51.850;21.698;2024-03-25T12:45:02;98582.80;;;10.09;61.86
50310;BME280;36207;51.850;21.698;2024-03-25T12:47:29;98585.52;;;10.01;61.01
50310;BME280;36207;51.850;21.698;2024-03-25T12:49:56;98582.77;;;9.83;59.08
50310;BME280;36207;51.850;21.698;2024-03-25T12:52:23;98585.48;;;9.64;59.27
50310;BME280;36207;51.850;21.698;2024-03-25T12:54:49;98587.88;;;9.56;59.91
50310;BME280;36207;51.850;21.698;2024-03-25T12:57:15;98588.23;;;9.51;59.52
50310;BME280;36207;51.850;21.698;2024-03-25T12:59:41;98586.89;;;9.46;59.83
50310;BME280;36207;51.850;21.698;2024-03-25T13:02:10;98586.70;;;9.42;59.51